Time;durP1;ratioP1;P1;durP2;ratioP2;P2;SDS_P1;SDS_P2;PMS_P1;PMS_P2;Temp;Humidity;BMP_temperature;BMP_pressure;BME280_temperature;BME280_humidity;BME280_pressure;Samples;Min_cycle;Max_cycle;Signal;HPM_P1;HPM_P2
2022/07/13 00:01:04;;;;;;;0.35;0.35;;;25.50;53.10;;;;;;6274197;28;20035;-43
2022/07/13 00:04:06;;;;;;;0.20;0.20;;;25.40;53.10;;;;;;6276481;28;20154;-42
2022/07/13 00:07:08;;;;;;;0.30;0.30;;;25.40;53.20;;;;;;6271271;28;20948;-44
2022/07/13 00:10:10;;;;;;;0.35;0.20;;;25.40;53.20;;;;;;6277064;28;20566;-45
2022/07/13 00:13:12;;;;;;;0.30;0.30;;;25.40;53.40;;;;;;6250347;28;21538;-42
2022/07/13 00:16:13;;;;;;;0.50;0.30;;;25.30;53.30;;;;;;6273530;28;21213;-45
2022/07/13 00:19:16;;;;;;;0.20;0.20;;;25.40;53.40;;;;;;6263033;28;20598;-44
2022/07/13 00:22:17;;;;;;;0.32;0.30;;;25.20;53.30;;;;;;6269465;28;20032;-43
2022/07/13 00:25:19;;;;;;;0.20;0.20;;;25.40;53.40;;;;;;6267827;28;20124;-48
2022/07/13 00:28:20;;;;;;;0.20;0.20;;;25.40;53.40;;;;;;6276947;27;20051;-42
2022/07/13 00:31:22;;;;;;;0.20;0.20;;;25.30;53.40;;;;;;6289023;27;20101;-42
2022/07/13 00:34:30;;;;;;;0.28;0.25;;;25.30;53.50;;;;;;6285768;27;20108;-44
2022/07/13 00:37:32;;;;;;;0.20;0.20;;;25.30;53.50;;;;;;6287251;27;20043;-46
2022/07/13 00:40:33;;;;;;;0.50;0.40;;;25.30;53.50;;;;;;6299123;27;20031;-42
2022/07/13 00:43:35;;;;;;;0.30;0.30;;;25.30;53.60;;;;;;6292432;27;20046;-43
2022/07/13 00:46:37;;;;;;;0.20;0.20;;;25.20;53.60;;;;;;6294041;27;20040;-40
2022/07/13 00:49:39;;;;;;;0.10;0.10;;;25.30;53.80;;;;;;6280897;27;20075;-42
2022/07/13 00:52:42;;;;;;;0.30;0.30;;;25.10;53.70;;;;;;6295785;27;20071;-42
2022/07/13 00:55:44;;;;;;;0.40;0.32;;;25.30;53.90;;;;;;6299892;27;20078;-44
2022/07/13 00:58:47;;;;;;;0.25;0.25;;;25.20;53.80;;;;;;6294139;27;20059;-46
2022/07/13 01:01:48;;;;;;;0.30;0.30;;;25.20;53.90;;;;;;6291366;27;20147;-41
2022/07/13 01:04:54;;;;;;;0.25;0.25;;;25.10;53.90;;;;;;6292728;27;20040;-47
2022/07/13 01:07:56;;;;;;;0.43;0.40;;;25.20;54.00;;;;;;6279164;27;20040;-44
2022/07/13 01:10:58;;;;;;;0.38;0.30;;;25.20;54.60;;;;;;6285575;27;20125;-44
2022/07/13 01:14:00;;;;;;;0.40;0.30;;;25.20;54.10;;;;;;6268761;27;20052;-45
2022/07/13 01:17:02;;;;;;;0.20;0.20;;;25.10;54.10;;;;;;6258104;27;20043;-44
2022/07/13 01:20:06;;;;;;;0.22;0.20;;;25.10;54.10;;;;;;6276052;27;20871;-45
2022/07/13 01:23:10;;;;;;;0.28;0.20;;;25.20;54.20;;;;;;6286316;27;20148;-42
2022/07/13 01:26:12;;;;;;;0.50;0.30;;;25.20;54.30;;;;;;6270601;27;20120;-45
2022/07/13 01:29:16;;;;;;;0.22;0.22;;;25.20;54.30;;;;;;6289647;27;20052;-46
2022/07/13 01:32:18;;;;;;;0.43;0.40;;;25.10;54.30;;;;;;6300087;27;20043;-40
2022/07/13 01:35:23;;;;;;;0.20;0.20;;;25.00;54.40;;;;;;6287434;27;20047;-45
2022/07/13 01:38:27;;;;;;;0.40;0.20;;;25.10;54.50;;;;;;6296738;27;20075;-45
2022/07/13 01:41:29;;;;;;;0.17;0.17;;;25.10;54.60;;;;;;6285868;28;20372;-45
2022/07/13 01:44:30;;;;;;;0.22;0.22;;;25.00;54.50;;;;;;6249634;28;20240;-48
2022/07/13 01:47:32;;;;;;;0.30;0.30;;;25.10;54.70;;;;;;6271869;28;20039;-42
2022/07/13 01:50:34;;;;;;;0.30;0.30;;;25.10;54.70;;;;;;6265464;28;20411;-43
2022/07/13 01:53:36;;;;;;;0.38;0.30;;;25.10;54.80;;;;;;6266451;28;20211;-45
2022/07/13 01:56:37;;;;;;;0.22;0.20;;;25.00;54.80;;;;;;6276618;28;21426;-46
2022/07/13 01:59:39;;;;;;;0.20;0.20;;;25.00;54.90;;;;;;6269623;28;20082;-44
2022/07/13 02:02:41;;;;;;;0.30;0.20;;;25.00;54.90;;;;;;6264140;28;21191;-46
2022/07/13 02:05:48;;;;;;;0.30;0.30;;;25.00;55.00;;;;;;6287834;28;20419;-45
2022/07/13 02:08:50;;;;;;;0.30;0.30;;;24.90;55.00;;;;;;6280090;28;20044;-44
2022/07/13 02:11:55;;;;;;;0.50;0.40;;;25.00;55.10;;;;;;6280175;28;20130;-46
2022/07/13 02:14:57;;;;;;;0.40;0.40;;;25.00;55.10;;;;;;6281417;28;20609;-44
2022/07/13 02:17:58;;;;;;;0.20;0.20;;;25.20;55.30;;;;;;6284065;28;20152;-51
2022/07/13 02:21:00;;;;;;;0.50;0.38;;;25.00;55.20;;;;;;6278448;28;20888;-44
2022/07/13 02:24:03;;;;;;;0.20;0.20;;;25.00;55.30;;;;;;6286382;28;20813;-43
2022/07/13 02:27:04;;;;;;;0.20;0.20;;;24.80;55.20;;;;;;6269320;28;21015;-43
2022/07/13 02:30:06;;;;;;;0.32;0.20;;;24.90;55.30;;;;;;6253108;28;21233;-45
2022/07/13 02:33:08;;;;;;;0.20;0.20;;;24.90;55.40;;;;;;6269304;28;20043;-44
2022/07/13 02:36:12;;;;;;;0.20;0.20;;;24.90;55.40;;;;;;6266750;28;20147;-44
2022/07/13 02:39:15;;;;;;;0.30;0.30;;;24.90;55.50;;;;;;6263375;28;20366;-43
2022/07/13 02:42:16;;;;;;;0.30;0.30;;;24.90;55.50;;;;;;6263114;28;20044;-49
2022/07/13 02:45:18;;;;;;;0.30;0.30;;;24.90;55.50;;;;;;6266707;28;20602;-42
2022/07/13 02:48:20;;;;;;;0.30;0.30;;;24.90;55.60;;;;;;6280744;28;20384;-48
2022/07/13 02:51:22;;;;;;;0.40;0.40;;;24.80;55.50;;;;;;6277384;28;20035;-45
2022/07/13 02:54:24;;;;;;;0.30;0.30;;;24.90;55.60;;;;;;6281927;28;20043;-45
2022/07/13 02:57:26;;;;;;;0.30;0.30;;;24.90;55.70;;;;;;6282031;28;20324;-46
2022/07/13 03:00:32;;;;;;;0.30;0.28;;;24.80;55.60;;;;;;6279368;28;20051;-45
2022/07/13 03:03:34;;;;;;;0.20;0.20;;;24.90;55.70;;;;;;6274306;28;20536;-43
2022/07/13 03:06:37;;;;;;;0.30;0.30;;;24.80;55.70;;;;;;6277396;28;20061;-47
2022/07/13 03:09:39;;;;;;;0.30;0.30;;;24.80;55.80;;;;;;6276775;28;20051;-43
2022/07/13 03:12:41;;;;;;;0.20;0.20;;;24.80;55.80;;;;;;6275109;28;20039;-45
2022/07/13 03:15:42;;;;;;;0.30;0.30;;;24.80;55.90;;;;;;6265496;28;20043;-45
2022/07/13 03:18:44;;;;;;;0.35;0.35;;;24.90;56.00;;;;;;6267531;28;20140;-44
2022/07/13 03:21:45;;;;;;;0.40;0.40;;;24.70;56.00;;;;;;6271093;28;20574;-44
2022/07/13 03:24:47;;;;;;;0.30;0.30;;;24.80;56.00;;;;;;6263055;28;20044;-43
2022/07/13 03:27:49;;;;;;;0.30;0.30;;;24.90;56.10;;;;;;6263589;28;20048;-48
2022/07/13 03:30:52;;;;;;;0.50;0.30;;;24.80;56.10;;;;;;6260263;28;20052;-44
2022/07/13 03:33:54;;;;;;;0.20;0.20;;;24.60;56.00;;;;;;6272558;28;20157;-43
2022/07/13 03:37:04;;;;;;;0.30;0.30;;;24.70;56.10;;;;;;6259659;28;20879;-43
2022/07/13 03:40:08;;;;;;;0.30;0.30;;;24.70;56.20;;;;;;6274477;28;20445;-45
2022/07/13 03:43:13;;;;;;;0.30;0.30;;;24.70;56.20;;;;;;6277158;28;20055;-45
2022/07/13 03:46:15;;;;;;;0.30;0.30;;;24.70;56.20;;;;;;6267132;28;20043;-46
2022/07/13 03:49:17;;;;;;;0.30;0.30;;;24.70;56.90;;;;;;6265824;28;20685;-41
2022/07/13 03:52:19;;;;;;;0.40;0.40;;;24.60;56.20;;;;;;6263399;28;20047;-46
2022/07/13 03:55:22;;;;;;;0.40;0.25;;;24.60;56.20;;;;;;6269763;28;20441;-44
2022/07/13 03:58:23;;;;;;;0.30;0.30;;;24.70;56.30;;;;;;6262839;28;20943;-44
2022/07/13 04:01:25;;;;;;;0.40;0.30;;;24.70;56.30;;;;;;6261983;28;20036;-46
2022/07/13 04:04:27;;;;;;;0.30;0.30;;;24.60;56.30;;;;;;6264284;28;21128;-47
2022/07/13 04:07:34;;;;;;;0.32;0.30;;;24.50;56.30;;;;;;6271959;28;21338;-44
2022/07/13 04:10:36;;;;;;;0.30;0.30;;;24.50;56.30;;;;;;6276681;28;20272;-43
2022/07/13 04:13:38;;;;;;;0.30;0.30;;;24.40;56.30;;;;;;6280015;28;20070;-45
2022/07/13 04:16:40;;;;;;;0.30;0.30;;;24.30;56.50;;;;;;6274906;28;21055;-45
2022/07/13 04:19:43;;;;;;;0.30;0.30;;;24.60;56.50;;;;;;6264046;28;20272;-47
2022/07/13 04:22:45;;;;;;;0.47;0.40;;;24.60;56.60;;;;;;6261183;28;20121;-41
2022/07/13 04:25:48;;;;;;;0.30;0.30;;;24.50;56.60;;;;;;6258821;28;20446;-44
2022/07/13 04:28:50;;;;;;;0.40;0.38;;;24.60;56.60;;;;;;6257809;28;20342;-43
2022/07/13 04:31:55;;;;;;;0.30;0.30;;;24.50;56.60;;;;;;6257497;28;20313;-46
2022/07/13 04:34:57;;;;;;;0.30;0.30;;;24.50;56.70;;;;;;6262491;28;20319;-47
2022/07/13 04:38:02;;;;;;;0.30;0.30;;;24.50;56.70;;;;;;6255768;28;20626;-44
2022/07/13 04:41:04;;;;;;;0.25;0.25;;;24.50;56.70;;;;;;6260453;28;20052;-40
2022/07/13 04:44:06;;;;;;;0.30;0.30;;;24.50;56.80;;;;;;6273544;28;20054;-42
2022/07/13 04:47:08;;;;;;;0.40;0.40;;;24.50;56.80;;;;;;6273689;28;20082;-43
2022/07/13 04:50:11;;;;;;;0.30;0.30;;;24.50;56.80;;;;;;6259249;28;20254;-45
2022/07/13 04:53:12;;;;;;;0.40;0.30;;;24.50;56.90;;;;;;6257021;28;20047;-41
2022/07/13 04:56:15;;;;;;;0.32;0.32;;;24.40;56.90;;;;;;6260941;28;20188;-42
2022/07/13 04:59:17;;;;;;;0.30;0.30;;;24.40;56.90;;;;;;6258447;28;20129;-44
2022/07/13 05:02:19;;;;;;;0.50;0.50;;;24.40;57.00;;;;;;6252567;28;20059;-43
2022/07/13 05:05:21;;;;;;;0.30;0.30;;;24.50;57.10;;;;;;6259936;28;20039;-44
2022/07/13 05:08:29;;;;;;;0.40;0.40;;;24.50;57.20;;;;;;6275076;28;20105;-45
2022/07/13 05:11:31;;;;;;;0.47;0.30;;;24.40;57.10;;;;;;6280877;28;21017;-42
2022/07/13 05:14:35;;;;;;;0.47;0.40;;;24.40;57.20;;;;;;6274306;28;20054;-48
2022/07/13 05:17:37;;;;;;;0.57;0.30;;;24.40;57.20;;;;;;6266350;28;20047;-43
2022/07/13 05:20:38;;;;;;;0.63;0.32;;;24.50;57.40;;;;;;6243389;28;20396;-41
2022/07/13 05:23:40;;;;;;;0.35;0.35;;;24.50;57.40;;;;;;6256953;28;20341;-47
2022/07/13 05:26:43;;;;;;;0.32;0.32;;;24.40;57.40;;;;;;6243062;28;20168;-44
2022/07/13 05:29:45;;;;;;;0.20;0.20;;;24.40;57.50;;;;;;6254924;28;20646;-47
2022/07/13 05:32:50;;;;;;;0.30;0.30;;;24.30;57.40;;;;;;6263756;28;20923;-46
2022/07/13 05:35:53;;;;;;;0.30;0.30;;;24.30;57.40;;;;;;6265369;28;20035;-42
2022/07/13 05:38:55;;;;;;;0.47;0.40;;;24.40;57.50;;;;;;6243977;28;20444;-43
2022/07/13 05:41:58;;;;;;;0.38;0.38;;;24.40;57.60;;;;;;6259299;28;20239;-45
2022/07/13 05:45:00;;;;;;;0.30;0.20;;;24.40;57.70;;;;;;6256553;28;20488;-42
2022/07/13 05:48:01;;;;;;;0.30;0.30;;;24.40;57.70;;;;;;6250568;28;20050;-44
2022/07/13 05:51:04;;;;;;;0.30;0.30;;;24.50;57.80;;;;;;6255177;28;20550;-46
2022/07/13 05:54:26;;;;;;;0.22;0.22;;;24.40;57.80;;;;;;6248849;28;20561;-41
2022/07/13 05:57:46;;;;;;;0.35;0.30;;;24.40;57.80;;;;;;6264664;28;20166;-43
2022/07/13 06:00:47;;;;;;;0.50;0.50;;;24.40;57.80;;;;;;6269664;28;20048;-44
2022/07/13 06:03:49;;;;;;;0.45;0.45;;;24.40;57.80;;;;;;6265318;28;20092;-41
2022/07/13 06:06:51;;;;;;;0.47;0.38;;;24.40;57.90;;;;;;6264896;28;20047;-40
2022/07/13 06:09:52;;;;;;;0.50;0.47;;;24.40;57.90;;;;;;6270126;28;20118;-44
2022/07/13 06:12:55;;;;;;;0.30;0.30;;;24.40;58.10;;;;;;6268416;28;20074;-46
2022/07/13 06:15:59;;;;;;;0.65;0.65;;;24.50;58.10;;;;;;6271592;28;20044;-43
2022/07/13 06:19:01;;;;;;;0.65;0.40;;;24.30;58.00;;;;;;6270304;28;20032;-48
2022/07/13 06:22:02;;;;;;;1.48;0.50;;;24.40;58.10;;;;;;6260179;28;20051;-43
2022/07/13 06:25:04;;;;;;;0.38;0.38;;;24.40;58.10;;;;;;6263300;28;20129;-41
2022/07/13 06:28:07;;;;;;;0.55;0.40;;;24.40;58.20;;;;;;6257282;28;21210;-41
2022/07/13 06:31:08;;;;;;;0.40;0.40;;;24.40;58.30;;;;;;6232409;28;20138;-44
2022/07/13 06:34:10;;;;;;;0.55;0.45;;;24.30;58.30;;;;;;6248966;28;20043;-42
2022/07/13 06:37:12;;;;;;;0.55;0.50;;;24.50;58.60;;;;;;6241629;28;21264;-41
2022/07/13 06:40:37;;;;;;;0.65;0.40;;;24.50;58.60;;;;;;6221838;28;20040;-40
2022/07/13 06:43:39;;;;;;;0.40;0.40;;;24.50;58.70;;;;;;6230676;27;20040;-42
2022/07/13 06:46:41;;;;;;;1.00;0.55;;;24.40;58.70;;;;;;6213425;28;20046;-44
2022/07/13 06:49:42;;;;;;;0.43;0.40;;;24.50;58.90;;;;;;6227657;28;20095;-41
2022/07/13 06:52:44;;;;;;;0.60;0.50;;;24.60;58.90;;;;;;6231698;28;20040;-44
2022/07/13 06:55:46;;;;;;;0.50;0.50;;;24.60;59.10;;;;;;6219957;28;21112;-41
2022/07/13 06:58:49;;;;;;;0.47;0.38;;;24.50;59.10;;;;;;6211403;28;20047;-43
2022/07/13 07:01:52;;;;;;;0.40;0.40;;;24.70;59.20;;;;;;6161862;27;20118;-41
2022/07/13 07:04:54;;;;;;;0.47;0.40;;;24.60;59.20;;;;;;6205702;28;21015;-42
2022/07/13 07:07:56;;;;;;;0.45;0.45;;;24.60;59.20;;;;;;6158484;28;20048;-43
2022/07/13 07:10:58;;;;;;;0.50;0.50;;;24.70;59.30;;;;;;6169544;27;20040;-41
2022/07/13 07:14:00;;;;;;;1.30;0.35;;;24.70;59.30;;;;;;6186106;28;20040;-44
2022/07/13 07:17:02;;;;;;;1.75;0.40;;;24.80;59.50;;;;;;6176769;28;20060;-42
2022/07/13 07:20:06;;;;;;;0.90;0.50;;;24.70;59.40;;;;;;6195285;28;20048;-41
2022/07/13 07:23:12;;;;;;;0.70;0.50;;;24.80;59.60;;;;;;6194913;28;20052;-43
2022/07/13 07:26:15;;;;;;;0.30;0.30;;;24.90;59.70;;;;;;6198085;28;20039;-43
2022/07/13 07:29:17;;;;;;;1.02;0.57;;;24.90;59.70;;;;;;6166660;28;20054;-40
2022/07/13 07:32:19;;;;;;;1.45;0.50;;;24.90;59.80;;;;;;6149979;28;20052;-41
2022/07/13 07:35:21;;;;;;;0.70;0.52;;;24.90;59.90;;;;;;6174525;28;20056;-41
2022/07/13 07:38:23;;;;;;;1.73;0.50;;;24.90;60.00;;;;;;6180963;27;20049;-42
2022/07/13 07:41:25;;;;;;;0.65;0.40;;;24.90;59.60;;;;;;6157942;28;20040;-44
2022/07/13 07:44:27;;;;;;;0.50;0.40;;;24.90;60.00;;;;;;6164713;28;20511;-43
2022/07/13 07:47:29;;;;;;;0.70;0.50;;;24.90;60.00;;;;;;6170976;28;20168;-42
2022/07/13 07:50:31;;;;;;;1.00;0.50;;;24.90;60.00;;;;;;6152153;28;20500;-45
2022/07/13 07:53:32;;;;;;;1.50;0.47;;;25.00;60.00;;;;;;6147130;28;20046;-42
2022/07/13 07:56:35;;;;;;;0.50;0.40;;;25.00;60.00;;;;;;6162161;28;20043;-40
2022/07/13 07:59:37;;;;;;;0.70;0.60;;;24.90;59.90;;;;;;6171435;28;20047;-41
2022/07/13 08:02:39;;;;;;;0.52;0.40;;;25.00;60.00;;;;;;6127701;28;20056;-41
2022/07/13 08:05:48;;;;;;;0.40;0.40;;;24.90;59.80;;;;;;6146132;28;20048;-43
2022/07/13 08:08:49;;;;;;;0.30;0.30;;;25.00;59.90;;;;;;6156286;28;20039;-43
2022/07/13 08:11:51;;;;;;;0.43;0.40;;;24.90;59.80;;;;;;6162965;28;20449;-42
2022/07/13 08:14:53;;;;;;;0.45;0.45;;;25.00;59.90;;;;;;6124440;28;20044;-46
2022/07/13 08:17:55;;;;;;;0.70;0.60;;;25.00;60.00;;;;;;6152244;28;20135;-42
2022/07/13 08:20:57;;;;;;;0.40;0.40;;;25.00;59.90;;;;;;6166207;28;20040;-43
2022/07/13 08:23:58;;;;;;;0.40;0.40;;;25.00;59.90;;;;;;6175787;28;20053;-41
2022/07/13 08:27:01;;;;;;;1.77;0.50;;;25.10;59.90;;;;;;6182064;28;20044;-42
2022/07/13 08:30:04;;;;;;;0.40;0.40;;;25.10;60.00;;;;;;6168466;28;20054;-41
2022/07/13 08:33:06;;;;;;;1.17;0.40;;;25.10;59.90;;;;;;6174453;28;20055;-40
2022/07/13 08:39:21;;;;;;;0.40;0.40;;;25.10;59.90;;;;;;6176875;28;20050;-40
2022/07/13 08:42:23;;;;;;;0.50;0.40;;;25.10;59.80;;;;;;6178928;28;20183;-41
2022/07/13 08:45:25;;;;;;;0.43;0.40;;;25.10;59.80;;;;;;6167174;28;21674;-41
2022/07/13 08:48:31;;;;;;;1.27;0.38;;;25.10;59.70;;;;;;6168309;28;20443;-41
2022/07/13 08:51:34;;;;;;;1.67;0.50;;;25.10;59.70;;;;;;6141778;28;20047;-40
2022/07/13 08:54:36;;;;;;;0.60;0.60;;;25.10;59.70;;;;;;6139214;28;20048;-41
2022/07/13 08:57:39;;;;;;;0.40;0.40;;;25.10;59.60;;;;;;6184942;28;20254;-42
2022/07/13 09:00:42;;;;;;;0.40;0.40;;;25.10;59.60;;;;;;6161780;28;22125;-44
2022/07/13 09:03:44;;;;;;;0.60;0.60;;;25.20;59.70;;;;;;6148299;28;20126;-52
2022/07/13 09:06:48;;;;;;;0.32;0.32;;;25.30;59.60;;;;;;6125654;28;20048;-42
2022/07/13 09:09:55;;;;;;;0.40;0.40;;;25.30;59.60;;;;;;6134120;28;20102;-42
2022/07/13 09:13:33;;;;;;;0.40;0.30;;;25.20;59.40;;;;;;6145695;28;20039;-44
2022/07/13 09:16:38;;;;;;;0.55;0.38;;;25.20;59.20;;;;;;6133648;28;20085;-42
2022/07/13 09:19:42;;;;;;;0.50;0.40;;;25.10;59.10;;;;;;6149547;28;20040;-41
2022/07/13 09:22:48;;;;;;;0.82;0.35;;;25.20;59.00;;;;;;6162238;28;21206;-40
2022/07/13 09:25:55;;;;;;;0.38;0.38;;;25.20;58.80;;;;;;6151492;28;20146;-42
2022/07/13 09:29:00;;;;;;;0.40;0.40;;;25.20;58.60;;;;;;6145614;28;20042;-42
2022/07/13 09:32:07;;;;;;;0.50;0.50;;;25.30;58.60;;;;;;6125058;28;20040;-43
2022/07/13 09:35:08;;;;;;;0.80;0.50;;;25.30;58.50;;;;;;6137843;28;20043;-41
2022/07/13 09:38:27;;;;;;;0.40;0.40;;;25.20;58.30;;;;;;6166087;28;21491;-41
2022/07/13 09:41:30;;;;;;;0.50;0.50;;;25.30;58.20;;;;;;6125623;28;20040;-41
2022/07/13 09:47:53;;;;;;;0.40;0.35;;;25.30;58.00;;;;;;6118745;28;20035;-43
2022/07/13 09:50:55;;;;;;;1.33;0.40;;;25.20;57.80;;;;;;6142513;28;20121;-41
2022/07/13 09:54:00;;;;;;;0.70;0.40;;;25.40;57.80;;;;;;6148402;28;20067;-41
2022/07/13 09:57:04;;;;;;;0.90;0.40;;;25.30;57.60;;;;;;6170233;28;20047;-42
2022/07/13 10:00:10;;;;;;;1.00;0.45;;;25.30;57.40;;;;;;6146011;28;21569;-40
2022/07/13 10:03:13;;;;;;;0.60;0.50;;;25.30;57.30;;;;;;6154748;28;20054;-42
2022/07/13 10:06:15;;;;;;;0.47;0.30;;;25.30;57.80;;;;;;6162625;28;20137;-41
2022/07/13 10:09:19;;;;;;;0.40;0.40;;;25.30;56.80;;;;;;6152915;28;20073;-42
2022/07/13 10:12:21;;;;;;;0.25;0.20;;;25.40;56.60;;;;;;6135596;28;20046;-41
2022/07/13 10:15:24;;;;;;;0.30;0.30;;;25.30;56.30;;;;;;6165719;28;21267;-42
2022/07/13 10:18:29;;;;;;;0.50;0.40;;;25.30;55.90;;;;;;6165953;28;20095;-41
2022/07/13 10:21:41;;;;;;;0.30;0.20;;;25.30;55.60;;;;;;6163169;28;20424;-44
2022/07/13 10:24:57;;;;;;;0.32;0.32;;;25.50;55.50;;;;;;6142687;28;20517;-43
2022/07/13 10:28:04;;;;;;;0.30;0.30;;;25.30;55.10;;;;;;6114702;28;21296;-42
2022/07/13 10:31:28;;;;;;;0.40;0.40;;;25.20;54.80;;;;;;6150586;28;21808;-40
2022/07/13 10:34:50;;;;;;;0.30;0.30;;;25.30;54.60;;;;;;6158069;28;20056;-42
2022/07/13 10:38:20;;;;;;;0.30;0.30;;;25.30;54.50;;;;;;6177355;28;20048;-44
2022/07/13 10:41:23;;;;;;;0.47;0.45;;;25.30;54.30;;;;;;6195446;28;20049;-42
2022/07/13 10:44:41;;;;;;;0.20;0.20;;;25.30;54.20;;;;;;6186355;28;21089;-42
2022/07/13 10:47:45;;;;;;;0.30;0.30;;;25.30;53.90;;;;;;6140166;28;20320;-43
2022/07/13 10:50:48;;;;;;;0.28;0.28;;;25.30;53.90;;;;;;6182903;28;20353;-45
2022/07/13 10:54:09;;;;;;;0.38;0.30;;;25.30;53.70;;;;;;6211536;28;20070;-43
2022/07/13 10:57:13;;;;;;;0.20;0.20;;;25.30;53.80;;;;;;6216039;28;20117;-41
2022/07/13 11:00:18;;;;;;;0.30;0.30;;;25.30;53.50;;;;;;6203242;28;21234;-41
2022/07/13 11:03:27;;;;;;;0.50;0.30;;;25.30;53.30;;;;;;6189099;28;20063;-42
2022/07/13 11:06:29;;;;;;;0.32;0.32;;;25.30;53.10;;;;;;6193451;28;20075;-45
2022/07/13 11:09:30;;;;;;;0.20;0.20;;;25.30;53.00;;;;;;6206435;28;20166;-41
2022/07/13 11:12:33;;;;;;;0.35;0.30;;;25.30;52.70;;;;;;6203413;28;20043;-41
2022/07/13 11:15:50;;;;;;;0.57;0.30;;;25.40;52.50;;;;;;6204460;28;22507;-41
2022/07/13 11:18:53;;;;;;;0.40;0.40;;;25.40;52.20;;;;;;6181984;28;20488;-46
2022/07/13 11:22:10;;;;;;;0.43;0.40;;;25.30;52.00;;;;;;6208986;28;20047;-41
2022/07/13 11:25:27;;;;;;;0.20;0.20;;;25.30;51.70;;;;;;6183380;28;20154;-41
2022/07/13 11:28:35;;;;;;;0.40;0.30;;;25.40;51.50;;;;;;6223632;28;21138;-41
2022/07/13 11:31:37;;;;;;;0.30;0.30;;;25.30;51.40;;;;;;6222857;28;20083;-41
2022/07/13 11:34:39;;;;;;;0.13;0.10;;;25.30;51.10;;;;;;6208132;28;20121;-40
2022/07/13 11:37:43;;;;;;;0.32;0.30;;;25.30;51.00;;;;;;6211165;28;20039;-41
2022/07/13 11:40:45;;;;;;;0.75;0.35;;;25.30;50.80;;;;;;6198976;28;20197;-42
2022/07/13 11:43:47;;;;;;;0.30;0.30;;;25.30;50.70;;;;;;6179851;28;20090;-42
2022/07/13 11:46:49;;;;;;;1.98;0.47;;;25.30;50.90;;;;;;6186670;28;20039;-42
2022/07/13 11:49:54;;;;;;;1.23;0.30;;;25.40;50.80;;;;;;6174550;28;20052;-41
2022/07/13 11:52:55;;;;;;;0.73;0.32;;;25.40;50.80;;;;;;6179533;28;20051;-42
2022/07/13 11:56:04;;;;;;;0.30;0.22;;;25.20;50.50;;;;;;6183971;28;20255;-43
2022/07/13 11:59:06;;;;;;;1.10;0.30;;;25.40;50.50;;;;;;6153238;28;20046;-44
2022/07/13 12:02:09;;;;;;;0.82;0.30;;;25.40;51.00;;;;;;6182889;27;20174;-41
2022/07/13 12:05:11;;;;;;;1.13;0.30;;;25.30;50.90;;;;;;6176556;27;23550;-42
2022/07/13 12:08:20;;;;;;;0.30;0.30;;;25.50;50.30;;;;;;6153631;28;20051;-40
2022/07/13 12:11:22;;;;;;;0.20;0.20;;;25.30;50.10;;;;;;6152025;28;20050;-41
2022/07/13 12:14:25;;;;;;;0.45;0.20;;;25.50;50.10;;;;;;6153416;28;20046;-44
2022/07/13 12:17:29;;;;;;;0.52;0.40;;;25.50;50.60;;;;;;6149563;28;20170;-41
2022/07/13 12:20:38;;;;;;;0.73;0.20;;;25.50;49.90;;;;;;6157205;28;20309;-41
2022/07/13 12:23:46;;;;;;;0.30;0.20;;;25.50;49.70;;;;;;6179725;28;20158;-41
2022/07/13 12:26:51;;;;;;;0.20;0.20;;;25.60;49.00;;;;;;6156736;28;20148;-41
2022/07/13 12:30:07;;;;;;;0.32;0.20;;;25.50;49.00;;;;;;6136959;28;20048;-44
2022/07/13 12:33:10;;;;;;;0.20;0.20;;;25.50;48.60;;;;;;6127824;28;20067;-40
2022/07/13 12:36:13;;;;;;;0.20;0.20;;;25.50;48.60;;;;;;6147339;28;20154;-44
2022/07/13 12:39:15;;;;;;;0.25;0.20;;;25.60;48.20;;;;;;6166911;28;20077;-41
2022/07/13 12:42:17;;;;;;;1.42;0.20;;;25.60;47.80;;;;;;6162602;28;20039;-43
2022/07/13 12:45:19;;;;;;;0.30;0.30;;;25.50;47.40;;;;;;6155770;28;20043;-42
2022/07/13 12:48:23;;;;;;;0.43;0.25;;;25.50;47.10;;;;;;6140358;28;20150;-41
2022/07/13 12:51:25;;;;;;;0.40;0.20;;;25.50;46.80;;;;;;6175261;28;21022;-43
2022/07/13 12:54:41;;;;;;;1.27;0.38;;;25.50;46.60;;;;;;6150515;28;20047;-41
2022/07/13 12:57:43;;;;;;;0.40;0.20;;;25.60;46.40;;;;;;6135201;28;20047;-41
2022/07/13 13:00:45;;;;;;;0.90;0.20;;;25.60;46.30;;;;;;6166301;28;20158;-42
2022/07/13 13:03:53;;;;;;;1.13;0.20;;;25.60;46.10;;;;;;6137554;28;20080;-43
2022/07/13 13:06:55;;;;;;;0.35;0.10;;;25.30;45.70;;;;;;6139209;28;20042;-42
2022/07/13 13:09:57;;;;;;;0.20;0.20;;;25.60;45.60;;;;;;6131845;27;20044;-41
2022/07/13 13:12:58;;;;;;;1.27;0.20;;;25.60;45.30;;;;;;6125849;28;20171;-41
2022/07/13 13:16:01;;;;;;;0.20;0.20;;;25.60;45.10;;;;;;6135086;28;20130;-41
2022/07/13 13:19:03;;;;;;;0.20;0.20;;;25.50;44.70;;;;;;6130842;28;21264;-42
2022/07/13 13:22:06;;;;;;;0.22;0.10;;;25.60;44.60;;;;;;6114872;28;21416;-41
2022/07/13 13:25:08;;;;;;;0.30;0.20;;;25.60;44.40;;;;;;6140560;28;20058;-46
2022/07/13 13:28:10;;;;;;;0.35;0.15;;;25.70;44.30;;;;;;6102505;28;20138;-42
2022/07/13 13:31:12;;;;;;;0.20;0.20;;;25.60;44.10;;;;;;6093622;28;20054;-42
2022/07/13 13:34:13;;;;;;;0.13;0.10;;;25.60;44.00;;;;;;6115353;28;21124;-41
2022/07/13 13:37:23;;;;;;;0.20;0.20;;;25.50;43.70;;;;;;6149067;28;20036;-41
2022/07/13 13:40:24;;;;;;;1.70;0.20;;;25.60;43.50;;;;;;6134150;27;20051;-45
2022/07/13 13:43:26;;;;;;;0.15;0.10;;;25.80;43.40;;;;;;6096405;28;20943;-42
2022/07/13 13:46:28;;;;;;;0.20;0.20;;;25.70;43.10;;;;;;6123157;27;21470;-43
2022/07/13 13:49:30;;;;;;;0.30;0.30;;;25.60;43.00;;;;;;6115092;27;20051;-41
2022/07/13 13:52:31;;;;;;;0.20;0.20;;;25.60;43.00;;;;;;6144496;28;21417;-41
2022/07/13 13:55:33;;;;;;;0.80;0.10;;;25.70;43.10;;;;;;6126210;28;20091;-43
2022/07/13 13:58:35;;;;;;;0.77;0.30;;;25.70;43.10;;;;;;6120539;28;21756;-43
2022/07/13 14:01:38;;;;;;;0.30;0.20;;;25.70;43.20;;;;;;6155176;28;20040;-45
2022/07/13 14:04:48;;;;;;;0.20;0.20;;;25.80;43.30;;;;;;6122754;28;20054;-43
2022/07/13 14:07:50;;;;;;;2.95;0.20;;;25.70;43.30;;;;;;6135580;28;20058;-42
2022/07/13 14:10:52;;;;;;;0.20;0.20;;;25.80;43.40;;;;;;6148056;28;20072;-41
2022/07/13 14:14:13;;;;;;;0.20;0.20;;;25.80;43.50;;;;;;6123809;28;22917;-42
2022/07/13 14:17:16;;;;;;;0.65;0.10;;;25.80;43.60;;;;;;6127016;28;20051;-43
2022/07/13 14:20:23;;;;;;;0.20;0.20;;;25.70;43.60;;;;;;6135099;28;20086;-43
2022/07/13 14:23:26;;;;;;;0.28;0.20;;;25.80;43.80;;;;;;6114567;28;20043;-41
2022/07/13 14:26:27;;;;;;;0.47;0.10;;;25.80;43.90;;;;;;6143287;28;20043;-41
2022/07/13 14:29:29;;;;;;;1.30;0.20;;;25.80;43.90;;;;;;6141406;28;20049;-42
2022/07/13 14:32:32;;;;;;;0.30;0.20;;;25.80;43.90;;;;;;6125948;28;20043;-41
2022/07/13 14:35:38;;;;;;;0.22;0.20;;;25.80;43.90;;;;;;6108207;28;20091;-45
2022/07/13 14:38:39;;;;;;;0.25;0.13;;;25.80;43.80;;;;;;6149402;28;20130;-43
2022/07/13 14:41:47;;;;;;;0.52;0.45;;;25.80;43.70;;;;;;6135395;28;20067;-44
2022/07/13 14:44:48;;;;;;;0.15;0.15;;;25.80;43.70;;;;;;6152629;28;20079;-43
2022/07/13 14:47:54;;;;;;;0.20;0.10;;;25.90;43.60;;;;;;6149956;28;20048;-41
2022/07/13 14:51:09;;;;;;;0.13;0.13;;;25.90;43.60;;;;;;6145632;28;20059;-43
2022/07/13 14:54:13;;;;;;;0.20;0.20;;;26.00;43.70;;;;;;6130643;28;20051;-41
2022/07/13 14:57:14;;;;;;;0.20;0.20;;;25.90;43.60;;;;;;6147030;28;20059;-42
2022/07/13 15:00:17;;;;;;;0.20;0.10;;;25.90;43.70;;;;;;6149354;28;20050;-43
2022/07/13 15:03:19;;;;;;;0.17;0.17;;;25.90;43.70;;;;;;6140807;28;20139;-43
2022/07/13 15:06:21;;;;;;;0.30;0.20;;;25.80;43.80;;;;;;6127220;28;20044;-42
2022/07/13 15:09:22;;;;;;;0.20;0.20;;;25.90;43.90;;;;;;6147316;28;20166;-42
2022/07/13 15:12:44;;;;;;;0.30;0.25;;;25.90;44.00;;;;;;6126311;28;20051;-42
2022/07/13 15:15:45;;;;;;;0.20;0.17;;;25.90;44.20;;;;;;6154925;28;20043;-43
2022/07/13 15:18:48;;;;;;;0.65;0.20;;;25.90;44.00;;;;;;6139529;28;20133;-41
2022/07/13 15:21:50;;;;;;;0.50;0.20;;;26.00;44.00;;;;;;6146253;28;20044;-41
2022/07/13 15:24:51;;;;;;;0.22;0.20;;;26.00;44.00;;;;;;6139442;28;20052;-45
2022/07/13 15:27:53;;;;;;;0.30;0.20;;;25.90;43.80;;;;;;6153637;28;20170;-42
2022/07/13 15:30:55;;;;;;;1.95;0.30;;;25.90;44.10;;;;;;6166381;28;20079;-43
2022/07/13 15:33:57;;;;;;;0.28;0.28;;;26.00;43.80;;;;;;6173326;28;21578;-43
2022/07/13 15:36:59;;;;;;;1.05;0.20;;;26.00;43.90;;;;;;6173497;28;20062;-43
2022/07/13 15:40:01;;;;;;;0.50;0.15;;;26.10;43.90;;;;;;6162828;28;20040;-41
2022/07/13 15:43:03;;;;;;;0.20;0.20;;;26.00;43.80;;;;;;6175385;28;20040;-44
2022/07/13 15:46:05;;;;;;;0.10;0.10;;;26.10;44.20;;;;;;6154068;28;20096;-42
2022/07/13 15:49:07;;;;;;;0.20;0.20;;;26.10;44.90;;;;;;6170695;28;20078;-41
2022/07/13 15:52:12;;;;;;;0.20;0.20;;;26.10;45.50;;;;;;6157931;28;21324;-43
2022/07/13 15:55:13;;;;;;;0.50;0.30;;;26.20;46.20;;;;;;6156006;28;20076;-42
2022/07/13 15:58:15;;;;;;;0.20;0.20;;;26.10;46.80;;;;;;6145688;28;20048;-41
2022/07/13 16:01:17;;;;;;;0.30;0.30;;;26.20;47.50;;;;;;6159297;28;21552;-42
2022/07/13 16:04:19;;;;;;;0.65;0.30;;;26.20;47.80;;;;;;6198432;28;20047;-43